sensor_id;sensor_type;location;lat;lon;timestamp;P1;durP1;ratioP1;P2;durP2;ratioP2
14472;SDS011;7322;50.872;4.386;2023-02-15T00:00:05;13.27;;;11.50;;
14472;SDS011;7322;50.872;4.386;2023-02-15T00:02:35;12.80;;;11.50;;
14472;SDS011;7322;50.872;4.386;2023-02-15T00:05:03;12.77;;;11.47;;
14472;SDS011;7322;50.872;4.386;2023-02-15T00:07:31;13.53;;;12.07;;
14472;SDS011;7322;50.872;4.386;2023-02-15T00:10:00;13.33;;;11.67;;
14472;SDS011;7322;50.872;4.386;2023-02-15T00:12:35;15.07;;;11.37;;
14472;SDS011;7322;50.872;4.386;2023-02-15T00:15:18;13.40;;;11.67;;
14472;SDS011;7322;50.872;4.386;2023-02-15T00:17:45;12.37;;;11.07;;
14472;SDS011;7322;50.872;4.386;2023-02-15T00:23:36;12.57;;;11.20;;
14472;SDS011;7322;50.872;4.386;2023-02-15T00:26:04;12.17;;;10.97;;
14472;SDS011;7322;50.872;4.386;2023-02-15T00:28:34;13.33;;;11.20;;
14472;SDS011;7322;50.872;4.386;2023-02-15T00:31:04;13.00;;;11.60;;
14472;SDS011;7322;50.872;4.386;2023-02-15T00:33:32;12.50;;;11.20;;
14472;SDS011;7322;50.872;4.386;2023-02-15T00:35:59;12.87;;;11.30;;
14472;SDS011;7322;50.872;4.386;2023-02-15T00:38:27;13.93;;;12.43;;
14472;SDS011;7322;50.872;4.386;2023-02-15T00:40:57;12.20;;;11.00;;
14472;SDS011;7322;50.872;4.386;2023-02-15T00:43:26;12.17;;;10.97;;
14472;SDS011;7322;50.872;4.386;2023-02-15T00:45:55;11.63;;;10.50;;
14472;SDS011;7322;50.872;4.386;2023-02-15T00:48:23;12.30;;;11.00;;
14472;SDS011;7322;50.872;4.386;2023-02-15T00:50:52;11.93;;;10.73;;
14472;SDS011;7322;50.872;4.386;2023-02-15T00:53:21;12.77;;;11.47;;
14472;SDS011;7322;50.872;4.386;2023-02-15T00:55:49;13.03;;;11.10;;
14472;SDS011;7322;50.872;4.386;2023-02-15T00:58:16;12.70;;;11.43;;
14472;SDS011;7322;50.872;4.386;2023-02-15T01:00:46;12.03;;;10.73;;
14472;SDS011;7322;50.872;4.386;2023-02-15T01:03:15;12.47;;;11.17;;
14472;SDS011;7322;50.872;4.386;2023-02-15T01:05:43;12.40;;;11.20;;
14472;SDS011;7322;50.872;4.386;2023-02-15T01:08:11;12.23;;;11.03;;
14472;SDS011;7322;50.872;4.386;2023-02-15T01:10:38;12.53;;;11.23;;
14472;SDS011;7322;50.872;4.386;2023-02-15T01:13:07;12.30;;;11.10;;
14472;SDS011;7322;50.872;4.386;2023-02-15T01:15:36;13.17;;;11.37;;
14472;SDS011;7322;50.872;4.386;2023-02-15T01:18:03;12.90;;;11.50;;
14472;SDS011;7322;50.872;4.386;2023-02-15T01:20:34;11.83;;;10.73;;
14472;SDS011;7322;50.872;4.386;2023-02-15T01:23:04;11.93;;;10.80;;
14472;SDS011;7322;50.872;4.386;2023-02-15T01:25:32;13.17;;;11.73;;
14472;SDS011;7322;50.872;4.386;2023-02-15T01:28:01;11.97;;;10.77;;
14472;SDS011;7322;50.872;4.386;2023-02-15T01:30:30;12.70;;;11.40;;
14472;SDS011;7322;50.872;4.386;2023-02-15T01:32:57;12.03;;;10.83;;
14472;SDS011;7322;50.872;4.386;2023-02-15T01:35:26;11.87;;;10.67;;
14472;SDS011;7322;50.872;4.386;2023-02-15T01:37:54;12.40;;;11.10;;
14472;SDS011;7322;50.872;4.386;2023-02-15T01:40:22;12.33;;;10.50;;
14472;SDS011;7322;50.872;4.386;2023-02-15T01:42:50;12.23;;;11.00;;
14472;SDS011;7322;50.872;4.386;2023-02-15T01:45:19;11.97;;;10.77;;
14472;SDS011;7322;50.872;4.386;2023-02-15T01:47:49;11.40;;;10.30;;
14472;SDS011;7322;50.872;4.386;2023-02-15T01:50:23;11.90;;;10.70;;
14472;SDS011;7322;50.872;4.386;2023-02-15T01:52:57;12.70;;;10.60;;
14472;SDS011;7322;50.872;4.386;2023-02-15T01:55:29;12.03;;;10.77;;
14472;SDS011;7322;50.872;4.386;2023-02-15T01:58:01;11.20;;;10.03;;
14472;SDS011;7322;50.872;4.386;2023-02-15T02:00:44;11.67;;;10.47;;
14472;SDS011;7322;50.872;4.386;2023-02-15T02:34:55;12.23;;;10.93;;
14472;SDS011;7322;50.872;4.386;2023-02-15T02:37:28;11.77;;;10.20;;
14472;SDS011;7322;50.872;4.386;2023-02-15T02:40:03;11.70;;;10.30;;
14472;SDS011;7322;50.872;4.386;2023-02-15T02:42:39;11.73;;;10.43;;
14472;SDS011;7322;50.872;4.386;2023-02-15T02:45:12;11.47;;;10.27;;
14472;SDS011;7322;50.872;4.386;2023-02-15T02:47:45;11.90;;;10.10;;
14472;SDS011;7322;50.872;4.386;2023-02-15T02:50:21;11.90;;;10.70;;
14472;SDS011;7322;50.872;4.386;2023-02-15T02:52:50;11.60;;;10.50;;
14472;SDS011;7322;50.872;4.386;2023-02-15T02:55:19;11.20;;;10.00;;
14472;SDS011;7322;50.872;4.386;2023-02-15T02:57:52;12.03;;;10.73;;
14472;SDS011;7322;50.872;4.386;2023-02-15T03:00:22;11.33;;;10.20;;
14472;SDS011;7322;50.872;4.386;2023-02-15T03:02:53;11.30;;;10.20;;
14472;SDS011;7322;50.872;4.386;2023-02-15T03:05:31;11.10;;;9.97;;
14472;SDS011;7322;50.872;4.386;2023-02-15T03:08:02;11.90;;;10.70;;
14472;SDS011;7322;50.872;4.386;2023-02-15T03:10:31;11.13;;;10.03;;
14472;SDS011;7322;50.872;4.386;2023-02-15T03:13:01;11.13;;;10.07;;
14472;SDS011;7322;50.872;4.386;2023-02-15T03:15:29;10.80;;;9.80;;
14472;SDS011;7322;50.872;4.386;2023-02-15T03:18:13;11.77;;;10.40;;
14472;SDS011;7322;50.872;4.386;2023-02-15T03:23:16;11.57;;;10.17;;
14472;SDS011;7322;50.872;4.386;2023-02-15T03:25:52;11.53;;;10.43;;
14472;SDS011;7322;50.872;4.386;2023-02-15T03:28:27;11.40;;;10.27;;
14472;SDS011;7322;50.872;4.386;2023-02-15T03:31:00;11.00;;;9.80;;
14472;SDS011;7322;50.872;4.386;2023-02-15T03:33:31;10.57;;;9.57;;
14472;SDS011;7322;50.872;4.386;2023-02-15T03:36:02;10.70;;;9.70;;
14472;SDS011;7322;50.872;4.386;2023-02-15T03:38:33;10.70;;;9.60;;
14472;SDS011;7322;50.872;4.386;2023-02-15T03:41:11;10.97;;;9.87;;
14472;SDS011;7322;50.872;4.386;2023-02-15T03:43:43;11.40;;;9.83;;
14472;SDS011;7322;50.872;4.386;2023-02-15T03:46:19;11.00;;;9.90;;
14472;SDS011;7322;50.872;4.386;2023-02-15T03:48:52;10.77;;;9.73;;
14472;SDS011;7322;50.872;4.386;2023-02-15T03:51:25;10.93;;;9.83;;
14472;SDS011;7322;50.872;4.386;2023-02-15T03:54:06;12.17;;;10.87;;
14472;SDS011;7322;50.872;4.386;2023-02-15T03:59:06;11.23;;;9.70;;
14472;SDS011;7322;50.872;4.386;2023-02-15T04:01:55;11.10;;;10.00;;
14472;SDS011;7322;50.872;4.386;2023-02-15T04:04:36;11.47;;;9.93;;
14472;SDS011;7322;50.872;4.386;2023-02-15T04:07:08;11.00;;;9.90;;
14472;SDS011;7322;50.872;4.386;2023-02-15T04:09:37;11.00;;;9.90;;
14472;SDS011;7322;50.872;4.386;2023-02-15T04:12:32;10.70;;;9.60;;
14472;SDS011;7322;50.872;4.386;2023-02-15T04:14:59;10.50;;;9.50;;
14472;SDS011;7322;50.872;4.386;2023-02-15T04:17:45;11.30;;;9.97;;
14472;SDS011;7322;50.872;4.386;2023-02-15T04:20:13;11.47;;;9.77;;
14472;SDS011;7322;50.872;4.386;2023-02-15T04:22:59;10.80;;;9.70;;
14472;SDS011;7322;50.872;4.386;2023-02-15T04:25:44;10.93;;;9.83;;
14472;SDS011;7322;50.872;4.386;2023-02-15T04:28:11;10.07;;;9.10;;
14472;SDS011;7322;50.872;4.386;2023-02-15T04:30:39;10.73;;;9.40;;
14472;SDS011;7322;50.872;4.386;2023-02-15T04:33:06;10.37;;;9.37;;
14472;SDS011;7322;50.872;4.386;2023-02-15T04:35:35;11.07;;;9.90;;
14472;SDS011;7322;50.872;4.386;2023-02-15T04:38:03;10.73;;;9.63;;
14472;SDS011;7322;50.872;4.386;2023-02-15T04:40:32;10.70;;;9.50;;
14472;SDS011;7322;50.872;4.386;2023-02-15T04:43:05;9.70;;;8.53;;
14472;SDS011;7322;50.872;4.386;2023-02-15T04:45:33;10.70;;;9.60;;
14472;SDS011;7322;50.872;4.386;2023-02-15T04:48:00;10.13;;;9.13;;
14472;SDS011;7322;50.872;4.386;2023-02-15T04:50:28;10.00;;;9.00;;
14472;SDS011;7322;50.872;4.386;2023-02-15T04:52:56;9.83;;;8.93;;
14472;SDS011;7322;50.872;4.386;2023-02-15T04:55:24;9.80;;;8.83;;
14472;SDS011;7322;50.872;4.386;2023-02-15T04:57:52;9.83;;;8.83;;
14472;SDS011;7322;50.872;4.386;2023-02-15T05:00:19;9.70;;;8.70;;
14472;SDS011;7322;50.872;4.386;2023-02-15T05:02:50;9.77;;;8.77;;
14472;SDS011;7322;50.872;4.386;2023-02-15T05:05:17;9.93;;;8.67;;
14472;SDS011;7322;50.872;4.386;2023-02-15T05:07:44;10.30;;;9.17;;
14472;SDS011;7322;50.872;4.386;2023-02-15T05:10:11;10.00;;;9.00;;
14472;SDS011;7322;50.872;4.386;2023-02-15T05:12:39;10.07;;;9.07;;
14472;SDS011;7322;50.872;4.386;2023-02-15T05:15:07;10.43;;;9.33;;
14472;SDS011;7322;50.872;4.386;2023-02-15T05:17:34;9.80;;;8.80;;
14472;SDS011;7322;50.872;4.386;2023-02-15T05:20:04;9.67;;;8.77;;
14472;SDS011;7322;50.872;4.386;2023-02-15T05:22:33;9.20;;;8.30;;
14472;SDS011;7322;50.872;4.386;2023-02-15T05:25:00;9.70;;;8.80;;
14472;SDS011;7322;50.872;4.386;2023-02-15T05:27:46;9.87;;;8.87;;
14472;SDS011;7322;50.872;4.386;2023-02-15T05:30:31;9.93;;;9.03;;
14472;SDS011;7322;50.872;4.386;2023-02-15T05:32:58;9.60;;;8.63;;
14472;SDS011;7322;50.872;4.386;2023-02-15T05:35:26;9.40;;;8.50;;
14472;SDS011;7322;50.872;4.386;2023-02-15T05:37:55;9.70;;;8.70;;
14472;SDS011;7322;50.872;4.386;2023-02-15T05:40:22;8.60;;;7.80;;
14472;SDS011;7322;50.872;4.386;2023-02-15T05:42:51;9.73;;;8.77;;
14472;SDS011;7322;50.872;4.386;2023-02-15T05:45:18;9.07;;;8.17;;
14472;SDS011;7322;50.872;4.386;2023-02-15T05:47:46;9.63;;;8.67;;
14472;SDS011;7322;50.872;4.386;2023-02-15T05:50:14;9.50;;;8.33;;
14472;SDS011;7322;50.872;4.386;2023-02-15T05:52:41;9.70;;;8.43;;
14472;SDS011;7322;50.872;4.386;2023-02-15T05:55:08;9.90;;;8.87;;
14472;SDS011;7322;50.872;4.386;2023-02-15T05:57:36;9.87;;;8.97;;
14472;SDS011;7322;50.872;4.386;2023-02-15T06:00:05;10.70;;;8.43;;
14472;SDS011;7322;50.872;4.386;2023-02-15T06:02:35;12.40;;;8.80;;
14472;SDS011;7322;50.872;4.386;2023-02-15T06:05:02;9.40;;;8.43;;
14472;SDS011;7322;50.872;4.386;2023-02-15T06:07:31;9.77;;;8.73;;
14472;SDS011;7322;50.872;4.386;2023-02-15T06:10:02;9.37;;;8.47;;
14472;SDS011;7322;50.872;4.386;2023-02-15T06:12:29;13.97;;;8.30;;
14472;SDS011;7322;50.872;4.386;2023-02-15T06:14:56;9.47;;;8.33;;
14472;SDS011;7322;50.872;4.386;2023-02-15T06:17:26;9.37;;;8.37;;
14472;SDS011;7322;50.872;4.386;2023-02-15T06:19:53;9.20;;;8.20;;
14472;SDS011;7322;50.872;4.386;2023-02-15T06:22:21;8.93;;;7.90;;
14472;SDS011;7322;50.872;4.386;2023-02-15T06:24:48;9.37;;;7.90;;
14472;SDS011;7322;50.872;4.386;2023-02-15T06:27:17;9.07;;;8.07;;
14472;SDS011;7322;50.872;4.386;2023-02-15T06:29:44;10.17;;;8.73;;
14472;SDS011;7322;50.872;4.386;2023-02-15T06:32:16;9.60;;;8.20;;
14472;SDS011;7322;50.872;4.386;2023-02-15T06:34:46;9.63;;;7.77;;
14472;SDS011;7322;50.872;4.386;2023-02-15T06:37:15;9.40;;;7.40;;
14472;SDS011;7322;50.872;4.386;2023-02-15T06:39:42;9.70;;;7.43;;
14472;SDS011;7322;50.872;4.386;2023-02-15T06:42:09;9.77;;;7.53;;
14472;SDS011;7322;50.872;4.386;2023-02-15T06:44:36;10.07;;;8.13;;
14472;SDS011;7322;50.872;4.386;2023-02-15T06:47:03;13.00;;;8.70;;
14472;SDS011;7322;50.872;4.386;2023-02-15T06:49:30;10.57;;;8.10;;
14472;SDS011;7322;50.872;4.386;2023-02-15T06:51:59;9.90;;;7.63;;
14472;SDS011;7322;50.872;4.386;2023-02-15T06:54:27;10.97;;;7.87;;
14472;SDS011;7322;50.872;4.386;2023-02-15T06:56:54;9.67;;;8.23;;
14472;SDS011;7322;50.872;4.386;2023-02-15T06:59:23;10.10;;;7.57;;
14472;SDS011;7322;50.872;4.386;2023-02-15T07:01:50;8.73;;;7.83;;
14472;SDS011;7322;50.872;4.386;2023-02-15T07:04:17;9.63;;;7.43;;
14472;SDS011;7322;50.872;4.386;2023-02-15T07:06:44;10.20;;;8.03;;
14472;SDS011;7322;50.872;4.386;2023-02-15T07:09:12;10.37;;;7.40;;
14472;SDS011;7322;50.872;4.386;2023-02-15T07:11:39;8.60;;;7.70;;
14472;SDS011;7322;50.872;4.386;2023-02-15T07:14:24;9.10;;;7.53;;
14472;SDS011;7322;50.872;4.386;2023-02-15T07:16:52;10.37;;;7.87;;
14472;SDS011;7322;50.872;4.386;2023-02-15T07:19:26;10.53;;;8.37;;
14472;SDS011;7322;50.872;4.386;2023-02-15T07:21:54;8.97;;;8.00;;
14472;SDS011;7322;50.872;4.386;2023-02-15T07:24:23;9.63;;;7.40;;
14472;SDS011;7322;50.872;4.386;2023-02-15T07:26:50;10.67;;;7.90;;
14472;SDS011;7322;50.872;4.386;2023-02-15T07:29:17;9.17;;;8.00;;
14472;SDS011;7322;50.872;4.386;2023-02-15T07:31:44;9.03;;;7.53;;
14472;SDS011;7322;50.872;4.386;2023-02-15T07:34:11;11.43;;;7.73;;
14472;SDS011;7322;50.872;4.386;2023-02-15T07:36:39;9.70;;;7.93;;
14472;SDS011;7322;50.872;4.386;2023-02-15T07:39:07;8.80;;;7.90;;
14472;SDS011;7322;50.872;4.386;2023-02-15T07:41:37;10.07;;;7.90;;
14472;SDS011;7322;50.872;4.386;2023-02-15T07:44:04;10.30;;;7.77;;
14472;SDS011;7322;50.872;4.386;2023-02-15T07:46:31;8.60;;;7.73;;
14472;SDS011;7322;50.872;4.386;2023-02-15T07:51:31;10.87;;;7.63;;
14472;SDS011;7322;50.872;4.386;2023-02-15T07:54:04;9.07;;;8.03;;
14472;SDS011;7322;50.872;4.386;2023-02-15T07:56:31;10.13;;;7.47;;
14472;SDS011;7322;50.872;4.386;2023-02-15T07:59:01;8.10;;;7.30;;
14472;SDS011;7322;50.872;4.386;2023-02-15T08:01:30;9.10;;;7.50;;
14472;SDS011;7322;50.872;4.386;2023-02-15T08:04:00;8.50;;;7.27;;
14472;SDS011;7322;50.872;4.386;2023-02-15T08:06:29;9.37;;;7.57;;
14472;SDS011;7322;50.872;4.386;2023-02-15T08:08:59;10.53;;;7.90;;
14472;SDS011;7322;50.872;4.386;2023-02-15T08:11:27;7.73;;;6.93;;
14472;SDS011;7322;50.872;4.386;2023-02-15T08:13:58;8.97;;;7.70;;
14472;SDS011;7322;50.872;4.386;2023-02-15T08:16:29;7.87;;;7.13;;
14472;SDS011;7322;50.872;4.386;2023-02-15T08:19:00;10.73;;;7.50;;
14472;SDS011;7322;50.872;4.386;2023-02-15T08:21:28;8.77;;;7.50;;
14472;SDS011;7322;50.872;4.386;2023-02-15T08:23:56;8.17;;;7.00;;
14472;SDS011;7322;50.872;4.386;2023-02-15T08:26:25;9.30;;;7.40;;
14472;SDS011;7322;50.872;4.386;2023-02-15T08:28:54;9.50;;;7.83;;
14472;SDS011;7322;50.872;4.386;2023-02-15T08:31:24;8.57;;;6.90;;
14472;SDS011;7322;50.872;4.386;2023-02-15T08:33:53;8.37;;;7.33;;
14472;SDS011;7322;50.872;4.386;2023-02-15T08:36:22;9.27;;;7.50;;
14472;SDS011;7322;50.872;4.386;2023-02-15T08:38:52;8.87;;;7.40;;
14472;SDS011;7322;50.872;4.386;2023-02-15T08:41:20;8.93;;;8.03;;
14472;SDS011;7322;50.872;4.386;2023-02-15T08:43:49;8.53;;;7.63;;
14472;SDS011;7322;50.872;4.386;2023-02-15T08:46:19;9.67;;;7.87;;
14472;SDS011;7322;50.872;4.386;2023-02-15T08:48:48;8.63;;;7.27;;
14472;SDS011;7322;50.872;4.386;2023-02-15T08:51:16;9.50;;;7.83;;
14472;SDS011;7322;50.872;4.386;2023-02-15T08:53:45;7.87;;;7.07;;
14472;SDS011;7322;50.872;4.386;2023-02-15T08:56:14;8.60;;;7.70;;
14472;SDS011;7322;50.872;4.386;2023-02-15T08:58:42;8.97;;;7.57;;
14472;SDS011;7322;50.872;4.386;2023-02-15T09:01:10;9.90;;;7.83;;
14472;SDS011;7322;50.872;4.386;2023-02-15T09:03:44;9.57;;;7.60;;
14472;SDS011;7322;50.872;4.386;2023-02-15T09:06:14;8.93;;;7.90;;
14472;SDS011;7322;50.872;4.386;2023-02-15T09:08:42;7.63;;;6.93;;
14472;SDS011;7322;50.872;4.386;2023-02-15T09:11:10;9.47;;;8.40;;
14472;SDS011;7322;50.872;4.386;2023-02-15T09:13:38;9.93;;;8.20;;
14472;SDS011;7322;50.872;4.386;2023-02-15T09:16:06;8.73;;;7.83;;
14472;SDS011;7322;50.872;4.386;2023-02-15T09:18:36;8.33;;;7.27;;
14472;SDS011;7322;50.872;4.386;2023-02-15T09:21:04;10.13;;;7.93;;
14472;SDS011;7322;50.872;4.386;2023-02-15T09:23:35;9.57;;;8.57;;
14472;SDS011;7322;50.872;4.386;2023-02-15T09:26:03;9.53;;;8.63;;
14472;SDS011;7322;50.872;4.386;2023-02-15T09:28:32;9.63;;;7.80;;
14472;SDS011;7322;50.872;4.386;2023-02-15T09:31:06;8.97;;;7.63;;
14472;SDS011;7322;50.872;4.386;2023-02-15T09:33:37;8.70;;;7.80;;
14472;SDS011;7322;50.872;4.386;2023-02-15T09:36:14;9.17;;;7.87;;
14472;SDS011;7322;50.872;4.386;2023-02-15T09:38:43;9.23;;;8.00;;
14472;SDS011;7322;50.872;4.386;2023-02-15T09:41:18;8.57;;;7.73;;
14472;SDS011;7322;50.872;4.386;2023-02-15T09:44:00;8.90;;;8.00;;
14472;SDS011;7322;50.872;4.386;2023-02-15T09:46:42;9.30;;;8.40;;
14472;SDS011;7322;50.872;4.386;2023-02-15T09:49:21;8.87;;;7.60;;
14472;SDS011;7322;50.872;4.386;2023-02-15T09:54:56;9.20;;;8.13;;
14472;SDS011;7322;50.872;4.386;2023-02-15T09:57:36;11.73;;;8.67;;
14472;SDS011;7322;50.872;4.386;2023-02-15T10:00:12;8.83;;;7.73;;
14472;SDS011;7322;50.872;4.386;2023-02-15T10:02:54;11.50;;;8.40;;
14472;SDS011;7322;50.872;4.386;2023-02-15T10:05:41;8.93;;;8.03;;
14472;SDS011;7322;50.872;4.386;2023-02-15T10:08:31;12.20;;;9.07;;
14472;SDS011;7322;50.872;4.386;2023-02-15T10:11:16;13.17;;;10.00;;
14472;SDS011;7322;50.872;4.386;2023-02-15T10:14:10;11.83;;;9.77;;
14472;SDS011;7322;50.872;4.386;2023-02-15T10:17:04;12.50;;;10.50;;
14472;SDS011;7322;50.872;4.386;2023-02-15T10:19:43;13.83;;;10.30;;
14472;SDS011;7322;50.872;4.386;2023-02-15T10:22:25;12.47;;;10.53;;
14472;SDS011;7322;50.872;4.386;2023-02-15T10:25:07;12.77;;;10.47;;
14472;SDS011;7322;50.872;4.386;2023-02-15T10:27:49;13.47;;;10.97;;
14472;SDS011;7322;50.872;4.386;2023-02-15T10:30:18;15.47;;;11.00;;
14472;SDS011;7322;50.872;4.386;2023-02-15T10:32:52;12.70;;;10.77;;
14472;SDS011;7322;50.872;4.386;2023-02-15T10:35:30;13.77;;;11.20;;
14472;SDS011;7322;50.872;4.386;2023-02-15T10:38:12;12.77;;;11.03;;
14472;SDS011;7322;50.872;4.386;2023-02-15T10:40:51;12.23;;;9.83;;
14472;SDS011;7322;50.872;4.386;2023-02-15T10:43:32;10.60;;;9.47;;
14472;SDS011;7322;50.872;4.386;2023-02-15T10:46:14;13.17;;;10.40;;
14472;SDS011;7322;50.872;4.386;2023-02-15T10:48:55;11.53;;;10.33;;
14472;SDS011;7322;50.872;4.386;2023-02-15T10:51:36;10.90;;;9.73;;
14472;SDS011;7322;50.872;4.386;2023-02-15T10:54:13;10.70;;;9.63;;
14472;SDS011;7322;50.872;4.386;2023-02-15T10:56:53;13.63;;;10.67;;
14472;SDS011;7322;50.872;4.386;2023-02-15T10:59:37;12.10;;;10.27;;
14472;SDS011;7322;50.872;4.386;2023-02-15T11:02:20;11.43;;;9.80;;
14472;SDS011;7322;50.872;4.386;2023-02-15T11:05:00;11.17;;;10.07;;
14472;SDS011;7322;50.872;4.386;2023-02-15T11:07:43;11.97;;;9.97;;
14472;SDS011;7322;50.872;4.386;2023-02-15T11:10:19;11.17;;;9.87;;
14472;SDS011;7322;50.872;4.386;2023-02-15T11:12:54;12.47;;;10.47;;
14472;SDS011;7322;50.872;4.386;2023-02-15T11:15:36;11.83;;;10.03;;
14472;SDS011;7322;50.872;4.386;2023-02-15T11:18:11;12.90;;;10.27;;
14472;SDS011;7322;50.872;4.386;2023-02-15T11:20:55;12.53;;;10.87;;
14472;SDS011;7322;50.872;4.386;2023-02-15T11:23:40;13.77;;;10.77;;
14472;SDS011;7322;50.872;4.386;2023-02-15T11:26:12;11.70;;;10.50;;
14472;SDS011;7322;50.872;4.386;2023-02-15T11:28:48;13.37;;;10.73;;
14472;SDS011;7322;50.872;4.386;2023-02-15T11:31:21;12.53;;;10.20;;
14472;SDS011;7322;50.872;4.386;2023-02-15T11:45:26;11.93;;;10.60;;
14472;SDS011;7322;50.872;4.386;2023-02-15T11:48:01;11.93;;;9.83;;
14472;SDS011;7322;50.872;4.386;2023-02-15T11:50:42;11.20;;;9.70;;
14472;SDS011;7322;50.872;4.386;2023-02-15T11:53:28;11.37;;;10.20;;
14472;SDS011;7322;50.872;4.386;2023-02-15T11:59:09;11.43;;;10.23;;
14472;SDS011;7322;50.872;4.386;2023-02-15T12:07:40;12.07;;;10.07;;
14472;SDS011;7322;50.872;4.386;2023-02-15T12:10:16;12.20;;;9.57;;
14472;SDS011;7322;50.872;4.386;2023-02-15T12:15:55;11.37;;;9.17;;
14472;SDS011;7322;50.872;4.386;2023-02-15T12:18:32;10.73;;;9.37;;
14472;SDS011;7322;50.872;4.386;2023-02-15T12:21:05;11.90;;;9.30;;
14472;SDS011;7322;50.872;4.386;2023-02-15T12:23:48;11.93;;;9.50;;
14472;SDS011;7322;50.872;4.386;2023-02-15T12:26:23;12.23;;;9.90;;
14472;SDS011;7322;50.872;4.386;2023-02-15T12:28:51;11.87;;;9.57;;
14472;SDS011;7322;50.872;4.386;2023-02-15T12:31:24;10.17;;;9.17;;
14472;SDS011;7322;50.872;4.386;2023-02-15T12:34:11;10.33;;;9.17;;
14472;SDS011;7322;50.872;4.386;2023-02-15T12:36:48;11.00;;;8.73;;
14472;SDS011;7322;50.872;4.386;2023-02-15T12:39:24;12.20;;;9.10;;
14472;SDS011;7322;50.872;4.386;2023-02-15T12:42:00;10.57;;;9.33;;
14472;SDS011;7322;50.872;4.386;2023-02-15T12:44:30;10.67;;;9.43;;
14472;SDS011;7322;50.872;4.386;2023-02-15T12:47:01;9.20;;;8.27;;
14472;SDS011;7322;50.872;4.386;2023-02-15T12:49:29;11.40;;;8.63;;
14472;SDS011;7322;50.872;4.386;2023-02-15T12:52:00;12.60;;;9.03;;
14472;SDS011;7322;50.872;4.386;2023-02-15T13:00:24;10.17;;;8.77;;
14472;SDS011;7322;50.872;4.386;2023-02-15T13:03:14;11.03;;;9.10;;
14472;SDS011;7322;50.872;4.386;2023-02-15T13:05:54;10.40;;;8.60;;
14472;SDS011;7322;50.872;4.386;2023-02-15T13:08:27;9.30;;;8.40;;
14472;SDS011;7322;50.872;4.386;2023-02-15T13:11:00;11.67;;;9.13;;
14472;SDS011;7322;50.872;4.386;2023-02-15T13:13:38;10.60;;;8.87;;
14472;SDS011;7322;50.872;4.386;2023-02-15T13:16:19;11.33;;;8.37;;
14472;SDS011;7322;50.872;4.386;2023-02-15T13:19:01;9.87;;;8.57;;
14472;SDS011;7322;50.872;4.386;2023-02-15T13:21:38;11.03;;;8.50;;
14472;SDS011;7322;50.872;4.386;2023-02-15T13:24:13;9.53;;;8.53;;
14472;SDS011;7322;50.872;4.386;2023-02-15T13:26:45;11.27;;;9.00;;
14472;SDS011;7322;50.872;4.386;2023-02-15T13:29:16;10.33;;;9.00;;
14472;SDS011;7322;50.872;4.386;2023-02-15T13:31:47;13.00;;;9.17;;
14472;SDS011;7322;50.872;4.386;2023-02-15T13:34:16;10.07;;;8.40;;
14472;SDS011;7322;50.872;4.386;2023-02-15T13:36:49;11.73;;;9.30;;
14472;SDS011;7322;50.872;4.386;2023-02-15T13:39:24;12.87;;;9.17;;
14472;SDS011;7322;50.872;4.386;2023-02-15T13:41:58;11.93;;;9.37;;
14472;SDS011;7322;50.872;4.386;2023-02-15T13:47:21;13.43;;;9.10;;
14472;SDS011;7322;50.872;4.386;2023-02-15T13:49:58;11.70;;;9.47;;
14472;SDS011;7322;50.872;4.386;2023-02-15T13:52:47;13.47;;;9.03;;
14472;SDS011;7322;50.872;4.386;2023-02-15T13:55:37;11.47;;;8.83;;
14472;SDS011;7322;50.872;4.386;2023-02-15T13:58:24;13.23;;;10.23;;
14472;SDS011;7322;50.872;4.386;2023-02-15T14:01:04;10.47;;;8.70;;
14472;SDS011;7322;50.872;4.386;2023-02-15T14:03:52;10.40;;;9.30;;
14472;SDS011;7322;50.872;4.386;2023-02-15T14:06:47;12.50;;;9.30;;
14472;SDS011;7322;50.872;4.386;2023-02-15T14:12:40;11.40;;;9.33;;
14472;SDS011;7322;50.872;4.386;2023-02-15T14:15:31;11.20;;;8.33;;
14472;SDS011;7322;50.872;4.386;2023-02-15T14:18:05;9.57;;;8.40;;
14472;SDS011;7322;50.872;4.386;2023-02-15T14:20:45;10.87;;;8.30;;
14472;SDS011;7322;50.872;4.386;2023-02-15T14:23:26;11.53;;;8.57;;
14472;SDS011;7322;50.872;4.386;2023-02-15T14:26:03;8.83;;;7.93;;
14472;SDS011;7322;50.872;4.386;2023-02-15T14:28:45;10.80;;;8.70;;
14472;SDS011;7322;50.872;4.386;2023-02-15T14:31:25;10.30;;;8.30;;
14472;SDS011;7322;50.872;4.386;2023-02-15T14:34:15;9.40;;;7.77;;
14472;SDS011;7322;50.872;4.386;2023-02-15T14:36:46;9.37;;;8.00;;
14472;SDS011;7322;50.872;4.386;2023-02-15T14:39:22;9.00;;;8.10;;
14472;SDS011;7322;50.872;4.386;2023-02-15T14:42:20;9.10;;;7.87;;
14472;SDS011;7322;50.872;4.386;2023-02-15T14:47:48;8.87;;;7.80;;
14472;SDS011;7322;50.872;4.386;2023-02-15T14:50:41;9.43;;;8.37;;
14472;SDS011;7322;50.872;4.386;2023-02-15T14:56:20;9.13;;;7.30;;
14472;SDS011;7322;50.872;4.386;2023-02-15T15:01:58;8.67;;;7.77;;
14472;SDS011;7322;50.872;4.386;2023-02-15T15:04:53;11.00;;;8.17;;
14472;SDS011;7322;50.872;4.386;2023-02-15T15:07:35;10.40;;;8.50;;
14472;SDS011;7322;50.872;4.386;2023-02-15T15:16:34;10.13;;;8.43;;
14472;SDS011;7322;50.872;4.386;2023-02-15T15:31:45;8.50;;;7.60;;
14472;SDS011;7322;50.872;4.386;2023-02-15T15:40:44;9.23;;;8.03;;
14472;SDS011;7322;50.872;4.386;2023-02-15T15:49:19;9.43;;;8.37;;
14472;SDS011;7322;50.872;4.386;2023-02-15T15:54:19;9.07;;;8.17;;
14472;SDS011;7322;50.872;4.386;2023-02-15T15:56:51;8.87;;;7.90;;
14472;SDS011;7322;50.872;4.386;2023-02-15T15:59:23;9.63;;;7.93;;
14472;SDS011;7322;50.872;4.386;2023-02-15T16:02:05;9.07;;;8.10;;
14472;SDS011;7322;50.872;4.386;2023-02-15T16:07:26;8.73;;;7.87;;
14472;SDS011;7322;50.872;4.386;2023-02-15T16:13:06;10.03;;;8.40;;
14472;SDS011;7322;50.872;4.386;2023-02-15T16:15:43;10.23;;;7.87;;
14472;SDS011;7322;50.872;4.386;2023-02-15T16:18:32;11.23;;;8.90;;
14472;SDS011;7322;50.872;4.386;2023-02-15T16:21:19;8.73;;;7.83;;
14472;SDS011;7322;50.872;4.386;2023-02-15T16:23:57;9.03;;;8.00;;
14472;SDS011;7322;50.872;4.386;2023-02-15T16:26:52;8.90;;;7.60;;
14472;SDS011;7322;50.872;4.386;2023-02-15T16:29:49;9.83;;;8.07;;
14472;SDS011;7322;50.872;4.386;2023-02-15T16:32:19;9.60;;;8.60;;
14472;SDS011;7322;50.872;4.386;2023-02-15T16:34:57;8.67;;;7.70;;
14472;SDS011;7322;50.872;4.386;2023-02-15T16:40:25;9.13;;;8.23;;
14472;SDS011;7322;50.872;4.386;2023-02-15T16:43:00;9.97;;;7.93;;
14472;SDS011;7322;50.872;4.386;2023-02-15T16:45:42;9.30;;;8.40;;
14472;SDS011;7322;50.872;4.386;2023-02-15T16:48:19;9.00;;;8.10;;
14472;SDS011;7322;50.872;4.386;2023-02-15T16:50:57;9.33;;;8.20;;
14472;SDS011;7322;50.872;4.386;2023-02-15T16:53:27;9.07;;;8.17;;
14472;SDS011;7322;50.872;4.386;2023-02-15T16:56:04;9.73;;;8.17;;
14472;SDS011;7322;50.872;4.386;2023-02-15T16:58:36;9.17;;;8.27;;
14472;SDS011;7322;50.872;4.386;2023-02-15T17:07:04;9.53;;;8.50;;
14472;SDS011;7322;50.872;4.386;2023-02-15T17:09:32;9.80;;;8.40;;
14472;SDS011;7322;50.872;4.386;2023-02-15T17:12:01;10.10;;;8.90;;
14472;SDS011;7322;50.872;4.386;2023-02-15T17:14:29;11.87;;;8.77;;
14472;SDS011;7322;50.872;4.386;2023-02-15T17:17:00;9.90;;;8.77;;
14472;SDS011;7322;50.872;4.386;2023-02-15T17:19:47;11.67;;;9.00;;
14472;SDS011;7322;50.872;4.386;2023-02-15T17:22:18;9.37;;;8.13;;
14472;SDS011;7322;50.872;4.386;2023-02-15T17:27:50;9.97;;;8.97;;
14472;SDS011;7322;50.872;4.386;2023-02-15T17:30:21;9.43;;;8.53;;
14472;SDS011;7322;50.872;4.386;2023-02-15T17:35:38;9.90;;;8.50;;
14472;SDS011;7322;50.872;4.386;2023-02-15T17:38:15;10.77;;;8.90;;
14472;SDS011;7322;50.872;4.386;2023-02-15T17:46:16;13.40;;;8.83;;
14472;SDS011;7322;50.872;4.386;2023-02-15T17:48:59;10.37;;;7.77;;
14472;SDS011;7322;50.872;4.386;2023-02-15T17:51:47;9.37;;;8.40;;
14472;SDS011;7322;50.872;4.386;2023-02-15T17:54:18;11.57;;;8.87;;
14472;SDS011;7322;50.872;4.386;2023-02-15T17:57:12;9.13;;;8.20;;